Time;durP1;ratioP1;P1;durP2;ratioP2;P2;SDS_P1;SDS_P2;PMS_P1;PMS_P2;Temp;Humidity;BMP_temperature;BMP_pressure;BME280_temperature;BME280_humidity;BME280_pressure;Samples;Min_cycle;Max_cycle;Signal;HPM_P1;HPM_P2
2023/08/29 00:00:08;;;;;;;2.95;2.75;;;;;;;;;;4989042;28;99317;-69
2023/08/29 00:02:41;;;;;;;;;;;;;;;;;;4989533;28;98624;-68
2023/08/29 00:05:12;;;;;;;4.07;3.17;;;;;;;;;;4987585;28;128343;-70
2023/08/29 00:07:38;;;;;;;4.00;3.53;;;;;;;;;;4989575;28;100139;-69
2023/08/29 00:10:05;;;;;;;4.03;3.78;;;;;;;;;;4992726;28;100345;-69
2023/08/29 00:12:32;;;;;;;3.08;2.88;;;;;;;;;;4988435;28;100440;-70
2023/08/29 00:14:59;;;;;;;3.70;3.47;;;;;;;;;;4989199;28;99145;-69
2023/08/29 00:17:26;;;;;;;3.70;3.22;;;;;;;;;;4998536;28;99152;-70
2023/08/29 00:19:54;;;;;;;4.40;3.25;;;;;;;;;;5004966;28;99970;-70
2023/08/29 00:22:21;;;;;;;3.90;3.33;;;;;;;;;;5008630;28;99912;-71
2023/08/29 00:24:48;;;;;;;3.72;3.33;;;;;;;;;;5008931;28;100508;-70
2023/08/29 00:27:14;;;;;;;10.25;3.28;;;;;;;;;;5007925;28;100214;-70
2023/08/29 00:29:41;;;;;;;3.63;3.38;;;;;;;;;;4993775;28;99113;-70
2023/08/29 00:32:08;;;;;;;3.30;3.10;;;;;;;;;;4991498;28;98860;-70
2023/08/29 00:34:34;;;;;;;3.63;3.08;;;;;;;;;;4968000;28;100010;-70
2023/08/29 00:37:01;;;;;;;3.53;3.22;;;;;;;;;;4985984;28;99208;-71
2023/08/29 00:39:27;;;;;;;4.03;2.90;;;;;;;;;;4987452;28;98542;-71
2023/08/29 00:41:54;;;;;;;8.27;3.40;;;;;;;;;;4988090;28;100122;-70
2023/08/29 00:44:21;;;;;;;4.05;3.67;;;;;;;;;;4987322;28;102112;-69
2023/08/29 00:46:49;;;;;;;3.13;2.83;;;;;;;;;;4986692;28;100040;-69
2023/08/29 00:49:17;;;;;;;3.47;3.28;;;;;;;;;;4987869;28;99026;-71
2023/08/29 00:51:43;;;;;;;3.30;3.10;;;;;;;;;;4988609;28;99126;-70
2023/08/29 00:54:10;;;;;;;4.07;3.40;;;;;;;;;;4992454;28;99104;-70
2023/08/29 00:56:37;;;;;;;3.90;3.08;;;;;;;;;;4987533;28;98954;-69
2023/08/29 00:59:05;;;;;;;3.80;3.50;;;;;;;;;;4988717;28;99067;-71
2023/08/29 01:01:32;;;;;;;3.83;3.08;;;;;;;;;;4986097;28;100419;-70
2023/08/29 01:03:59;;;;;;;3.40;3.10;;;;;;;;;;4988757;28;100175;-70
2023/08/29 01:06:26;;;;;;;3.70;3.40;;;;;;;;;;4988017;28;99122;-70
2023/08/29 01:08:52;;;;;;;3.40;3.15;;;;;;;;;;4987729;28;98667;-70
2023/08/29 01:11:25;;;;;;;3.30;3.10;;;;;;;;;;4988033;28;99153;-69
2023/08/29 01:14:00;;;;;;;4.05;3.80;;;;;;;;;;4990992;28;99147;-70
2023/08/29 01:16:36;;;;;;;3.72;3.42;;;;;;;;;;4986092;28;99184;-70
2023/08/29 01:19:06;;;;;;;3.38;3.17;;;;;;;;;;4988122;28;99398;-70
2023/08/29 01:21:53;;;;;;;3.58;3.30;;;;;;;;;;4988682;28;99153;-70
2023/08/29 01:24:44;;;;;;;4.70;3.90;;;;;;;;;;4987563;28;98766;-71
2023/08/29 01:27:11;;;;;;;3.50;3.20;;;;;;;;;;4988403;28;99495;-70
2023/08/29 01:29:40;;;;;;;3.50;3.20;;;;;;;;;;4987769;28;98803;-70
2023/08/29 01:32:07;;;;;;;3.17;2.97;;;;;;;;;;4985995;28;100819;-69
2023/08/29 01:34:34;;;;;;;4.05;3.85;;;;;;;;;;4999900;28;102257;-70
2023/08/29 01:37:00;;;;;;;3.65;3.22;;;;;;;;;;4970282;28;99876;-70
2023/08/29 01:39:27;;;;;;;3.40;3.15;;;;;;;;;;4966437;28;100189;-70
2023/08/29 01:41:53;;;;;;;3.28;3.08;;;;;;;;;;4966872;28;99118;-70
2023/08/29 01:44:20;;;;;;;4.63;2.90;;;;;;;;;;4998853;28;101032;-71
2023/08/29 01:46:46;;;;;;;3.17;2.95;;;;;;;;;;4967707;28;100270;-71
2023/08/29 01:49:13;;;;;;;5.35;3.47;;;;;;;;;;4967238;28;99987;-71
2023/08/29 01:51:39;;;;;;;3.17;3.00;;;;;;;;;;4965883;28;101018;-69
2023/08/29 01:54:06;;;;;;;4.13;3.38;;;;;;;;;;4968632;28;98947;-71
2023/08/29 01:56:33;;;;;;;2.90;2.67;;;;;;;;;;4967524;28;98892;-70
2023/08/29 01:58:59;;;;;;;4.32;3.05;;;;;;;;;;4969004;28;99301;-70
2023/08/29 02:01:29;;;;;;;5.25;3.10;;;;;;;;;;4990898;28;101812;-70
2023/08/29 02:03:56;;;;;;;3.65;2.72;;;;;;;;;;5007480;28;99667;-71
2023/08/29 02:06:22;;;;;;;5.38;2.83;;;;;;;;;;5006436;28;101580;-70
2023/08/29 02:08:49;;;;;;;2.58;2.45;;;;;;;;;;5007257;28;99440;-70
2023/08/29 02:11:15;;;;;;;2.65;2.47;;;;;;;;;;5007370;28;98787;-70
2023/08/29 02:13:42;;;;;;;3.47;3.05;;;;;;;;;;5005341;28;100433;-70
2023/08/29 02:16:09;;;;;;;2.80;2.65;;;;;;;;;;5005381;28;102500;-69
2023/08/29 02:18:36;;;;;;;2.67;2.47;;;;;;;;;;5005652;28;100924;-69
2023/08/29 02:21:03;;;;;;;4.18;3.00;;;;;;;;;;5009749;28;99440;-70
2023/08/29 02:23:30;;;;;;;2.88;2.67;;;;;;;;;;5006938;28;98802;-71
2023/08/29 02:26:03;;;;;;;3.05;2.85;;;;;;;;;;5005035;28;100434;-70
2023/08/29 02:28:35;;;;;;;3.22;2.78;;;;;;;;;;5000880;28;99359;-70
2023/08/29 02:31:05;;;;;;;5.55;2.97;;;;;;;;;;4986879;28;100008;-70
2023/08/29 02:33:34;;;;;;;3.95;2.72;;;;;;;;;;4986204;28;99217;-69
2023/08/29 02:36:00;;;;;;;3.17;2.88;;;;;;;;;;4987436;28;99891;-70
2023/08/29 02:38:27;;;;;;;4.30;2.42;;;;;;;;;;4986901;28;98927;-68
2023/08/29 02:40:53;;;;;;;2.90;2.45;;;;;;;;;;4984866;28;99705;-70
2023/08/29 02:43:20;;;;;;;2.78;2.50;;;;;;;;;;4990502;28;99248;-71
2023/08/29 02:45:48;;;;;;;2.40;2.30;;;;;;;;;;4988286;28;99185;-70
2023/08/29 02:48:15;;;;;;;8.90;4.07;;;;;;;;;;4987088;28;98911;-70
2023/08/29 02:50:42;;;;;;;3.05;2.80;;;;;;;;;;4986527;28;99998;-69
2023/08/29 02:53:08;;;;;;;2.75;2.60;;;;;;;;;;4987552;28;99219;-70
2023/08/29 02:55:34;;;;;;;3.40;3.10;;;;;;;;;;4985970;28;98831;-70
2023/08/29 02:58:01;;;;;;;3.03;2.60;;;;;;;;;;4987138;28;98895;-70
2023/08/29 03:00:27;;;;;;;2.92;2.58;;;;;;;;;;4986814;28;99187;-70
2023/08/29 03:02:54;;;;;;;3.10;2.72;;;;;;;;;;4984532;28;100816;-71
2023/08/29 03:05:21;;;;;;;3.00;2.80;;;;;;;;;;4989999;28;98828;-71
2023/08/29 03:07:48;;;;;;;2.72;2.53;;;;;;;;;;4987214;28;98871;-70
2023/08/29 03:10:14;;;;;;;2.30;2.20;;;;;;;;;;4986429;28;98980;-70
2023/08/29 03:12:41;;;;;;;7.80;2.60;;;;;;;;;;4985851;28;101128;-70
2023/08/29 03:15:09;;;;;;;2.60;2.45;;;;;;;;;;4984004;28;100153;-69
2023/08/29 03:17:35;;;;;;;2.30;2.20;;;;;;;;;;4985824;28;101648;-70
2023/08/29 03:20:04;;;;;;;3.70;2.38;;;;;;;;;;4985149;28;101070;-70
2023/08/29 03:22:31;;;;;;;2.50;2.30;;;;;;;;;;4985931;28;99768;-70
2023/08/29 03:24:58;;;;;;;3.42;2.55;;;;;;;;;;5001256;28;98923;-70
2023/08/29 03:27:24;;;;;;;2.17;2.08;;;;;;;;;;5005656;28;99945;-69
2023/08/29 03:29:51;;;;;;;2.03;1.92;;;;;;;;;;4990101;28;98788;-71
2023/08/29 03:32:18;;;;;;;7.18;2.13;;;;;;;;;;4987359;28;98368;-71
2023/08/29 03:34:44;;;;;;;3.30;2.30;;;;;;;;;;4986757;28;98991;-71
2023/08/29 03:37:13;;;;;;;3.20;1.98;;;;;;;;;;4986347;28;101238;-71
2023/08/29 03:39:40;;;;;;;5.72;1.80;;;;;;;;;;4988405;28;102905;-71
2023/08/29 03:42:06;;;;;;;2.45;1.98;;;;;;;;;;4990300;28;99477;-71
2023/08/29 03:44:33;;;;;;;1.42;1.42;;;;;;;;;;4987333;28;99002;-71
2023/08/29 03:46:59;;;;;;;6.93;1.83;;;;;;;;;;4993172;28;99220;-71
2023/08/29 03:49:26;;;;;;;1.63;1.52;;;;;;;;;;4989617;28;99540;-71
2023/08/29 03:51:52;;;;;;;2.28;1.67;;;;;;;;;;4988986;28;99593;-71
2023/08/29 03:54:19;;;;;;;1.50;1.50;;;;;;;;;;4987572;28;100691;-69
2023/08/29 03:56:45;;;;;;;1.95;1.80;;;;;;;;;;4990049;28;98850;-70
2023/08/29 03:59:12;;;;;;;2.00;1.90;;;;;;;;;;4988082;28;99358;-70
2023/08/29 04:01:39;;;;;;;2.78;2.17;;;;;;;;;;4987980;28;101026;-70
2023/08/29 04:04:06;;;;;;;4.55;2.10;;;;;;;;;;4987849;28;100238;-69
2023/08/29 04:06:35;;;;;;;2.42;2.22;;;;;;;;;;4987297;28;101240;-70
2023/08/29 04:09:03;;;;;;;2.47;2.28;;;;;;;;;;4992656;28;98686;-70
2023/08/29 04:11:30;;;;;;;2.95;2.13;;;;;;;;;;4989191;28;99085;-70
2023/08/29 04:13:56;;;;;;;3.17;1.92;;;;;;;;;;4987629;28;101594;-71
2023/08/29 04:16:23;;;;;;;2.17;2.08;;;;;;;;;;4989677;28;101531;-71
2023/08/29 04:18:49;;;;;;;1.90;1.80;;;;;;;;;;5008501;28;99387;-71
2023/08/29 04:21:19;;;;;;;4.72;2.10;;;;;;;;;;5007996;28;102379;-71
2023/08/29 04:23:46;;;;;;;1.85;1.73;;;;;;;;;;5007818;28;100075;-71
2023/08/29 04:26:12;;;;;;;2.45;2.00;;;;;;;;;;5007942;28;99526;-70
2023/08/29 04:28:39;;;;;;;1.77;1.70;;;;;;;;;;4993169;28;100921;-69
2023/08/29 04:31:09;;;;;;;3.20;2.85;;;;;;;;;;4981214;28;102262;-71
2023/08/29 04:33:35;;;;;;;3.40;3.10;;;;;;;;;;4971726;28;101037;-70
2023/08/29 04:36:02;;;;;;;3.90;2.05;;;;;;;;;;4987353;28;101724;-71
2023/08/29 04:38:28;;;;;;;2.30;2.05;;;;;;;;;;4988941;28;99458;-71
2023/08/29 04:40:55;;;;;;;2.35;2.25;;;;;;;;;;4986678;28;102257;-70
2023/08/29 04:43:21;;;;;;;3.10;1.98;;;;;;;;;;4988336;28;99119;-71
2023/08/29 04:45:50;;;;;;;2.17;2.08;;;;;;;;;;4989408;28;98545;-70
2023/08/29 04:48:17;;;;;;;2.72;2.53;;;;;;;;;;4985768;28;98944;-71
2023/08/29 04:50:47;;;;;;;3.67;2.83;;;;;;;;;;4989564;28;98862;-70
2023/08/29 04:53:16;;;;;;;12.77;2.90;;;;;;;;;;4989555;28;102050;-72
2023/08/29 04:55:42;;;;;;;2.58;2.38;;;;;;;;;;4986412;28;102244;-71
2023/08/29 04:58:09;;;;;;;2.40;2.30;;;;;;;;;;4988844;28;99503;-71
2023/08/29 05:00:36;;;;;;;2.63;2.38;;;;;;;;;;4987815;28;99763;-70
2023/08/29 05:03:04;;;;;;;2.63;2.42;;;;;;;;;;4987180;28;100079;-70
2023/08/29 05:05:31;;;;;;;7.63;2.70;;;;;;;;;;4988247;28;99297;-71
2023/08/29 05:07:57;;;;;;;3.65;3.10;;;;;;;;;;4988169;28;98850;-71
2023/08/29 05:10:25;;;;;;;2.90;2.60;;;;;;;;;;4987132;28;101331;-71
2023/08/29 05:12:52;;;;;;;4.05;2.63;;;;;;;;;;4986777;28;101016;-71
2023/08/29 05:15:19;;;;;;;3.38;2.65;;;;;;;;;;4988361;28;98477;-71
2023/08/29 05:17:46;;;;;;;2.63;2.17;;;;;;;;;;4986651;28;101139;-71
2023/08/29 05:20:13;;;;;;;2.90;2.70;;;;;;;;;;4986632;28;100956;-70
2023/08/29 05:22:39;;;;;;;2.55;2.30;;;;;;;;;;4985558;28;99734;-70
2023/08/29 05:25:06;;;;;;;2.72;2.42;;;;;;;;;;4987020;28;101813;-69
2023/08/29 05:27:34;;;;;;;2.75;2.55;;;;;;;;;;4987245;28;100049;-71
2023/08/29 05:30:01;;;;;;;3.63;2.38;;;;;;;;;;4986018;28;99083;-71
2023/08/29 05:32:28;;;;;;;2.97;2.78;;;;;;;;;;4967817;28;100471;-70
2023/08/29 05:34:56;;;;;;;3.13;2.20;;;;;;;;;;4977023;28;100523;-70
2023/08/29 05:37:23;;;;;;;2.55;2.42;;;;;;;;;;4986778;28;100225;-70
2023/08/29 05:39:49;;;;;;;2.85;2.70;;;;;;;;;;4987687;28;99251;-70
2023/08/29 05:42:16;;;;;;;3.80;2.90;;;;;;;;;;4996353;28;99970;-70
2023/08/29 05:44:42;;;;;;;3.30;3.10;;;;;;;;;;5006958;28;100156;-71
2023/08/29 05:47:09;;;;;;;3.35;3.08;;;;;;;;;;5007684;28;100039;-70
2023/08/29 05:49:35;;;;;;;2.95;2.85;;;;;;;;;;5007338;28;99883;-69
2023/08/29 05:52:02;;;;;;;4.28;3.88;;;;;;;;;;5006538;28;99208;-70
2023/08/29 05:54:29;;;;;;;3.67;3.42;;;;;;;;;;5007171;28;99896;-70
2023/08/29 05:56:56;;;;;;;3.22;3.03;;;;;;;;;;5009887;28;100230;-70
2023/08/29 05:59:22;;;;;;;3.95;3.00;;;;;;;;;;5006675;28;99821;-71
2023/08/29 06:01:48;;;;;;;4.20;3.38;;;;;;;;;;5006688;28;99457;-70
2023/08/29 06:04:15;;;;;;;3.75;3.30;;;;;;;;;;4984655;28;100295;-70
2023/08/29 06:06:43;;;;;;;3.28;2.90;;;;;;;;;;4978616;28;99404;-70
2023/08/29 06:09:10;;;;;;;4.45;3.78;;;;;;;;;;4979585;28;100345;-70
2023/08/29 06:11:37;;;;;;;6.35;2.90;;;;;;;;;;4987112;28;99363;-70
2023/08/29 06:14:03;;;;;;;3.78;3.33;;;;;;;;;;4986596;28;99862;-70
2023/08/29 06:16:30;;;;;;;3.53;2.60;;;;;;;;;;4976031;28;99104;-70
2023/08/29 06:18:56;;;;;;;12.93;3.67;;;;;;;;;;4969755;28;100181;-70
2023/08/29 06:21:23;;;;;;;2.40;2.30;;;;;;;;;;4984889;28;99928;-69
2023/08/29 06:23:49;;;;;;;3.13;2.83;;;;;;;;;;4985856;28;99409;-68
2023/08/29 06:26:16;;;;;;;3.20;2.90;;;;;;;;;;4970711;28;99841;-70
2023/08/29 06:28:43;;;;;;;3.50;2.88;;;;;;;;;;4970075;28;100142;-69
2023/08/29 06:31:09;;;;;;;6.15;3.00;;;;;;;;;;4974045;28;100363;-71
2023/08/29 06:33:36;;;;;;;2.88;2.67;;;;;;;;;;4979433;28;99142;-71
2023/08/29 06:36:03;;;;;;;4.65;2.97;;;;;;;;;;4974345;28;101134;-71
2023/08/29 06:38:29;;;;;;;3.35;3.08;;;;;;;;;;4964980;28;100653;-70
2023/08/29 06:40:58;;;;;;;6.90;3.20;;;;;;;;;;4972384;28;100153;-69
2023/08/29 06:43:25;;;;;;;4.10;3.25;;;;;;;;;;4971849;28;99841;-71
2023/08/29 06:45:54;;;;;;;3.30;2.97;;;;;;;;;;4976086;28;100493;-70
2023/08/29 06:48:20;;;;;;;3.15;2.90;;;;;;;;;;4972807;28;99743;-71
2023/08/29 06:50:46;;;;;;;3.55;2.92;;;;;;;;;;4983466;28;99284;-72
2023/08/29 06:53:13;;;;;;;4.28;3.88;;;;;;;;;;4968905;28;100015;-71
2023/08/29 06:55:45;;;;;;;3.65;3.35;;;;;;;;;;4980749;28;99299;-70
2023/08/29 06:58:11;;;;;;;3.50;3.20;;;;;;;;;;4987924;28;99249;-71
2023/08/29 07:00:38;;;;;;;3.00;2.80;;;;;;;;;;4977479;28;99182;-70
2023/08/29 07:03:05;;;;;;;3.22;2.70;;;;;;;;;;4974871;28;99089;-70
2023/08/29 07:05:31;;;;;;;6.10;2.92;;;;;;;;;;4969582;28;100041;-72
2023/08/29 07:07:59;;;;;;;6.63;2.67;;;;;;;;;;4974570;28;99182;-71
2023/08/29 07:10:26;;;;;;;7.40;3.08;;;;;;;;;;4969920;28;100326;-72
2023/08/29 07:12:52;;;;;;;4.80;2.88;;;;;;;;;;4973857;28;99000;-74
2023/08/29 07:15:19;;;;;;;5.05;3.03;;;;;;;;;;4976251;28;98947;-70
2023/08/29 07:17:45;;;;;;;3.35;3.03;;;;;;;;;;4977718;28;100162;-70
2023/08/29 07:20:12;;;;;;;4.18;2.83;;;;;;;;;;4968739;28;101015;-70
2023/08/29 07:22:40;;;;;;;3.83;3.20;;;;;;;;;;4973621;28;101101;-71
2023/08/29 07:25:07;;;;;;;5.65;3.13;;;;;;;;;;4985487;28;100413;-71
2023/08/29 07:27:33;;;;;;;4.70;2.88;;;;;;;;;;4976003;28;99945;-71
2023/08/29 07:30:00;;;;;;;3.85;3.47;;;;;;;;;;4969332;28;100017;-70
2023/08/29 07:32:27;;;;;;;3.45;3.13;;;;;;;;;;4973864;28;99934;-71
2023/08/29 07:34:55;;;;;;;7.75;2.80;;;;;;;;;;4981385;28;99285;-71
2023/08/29 07:37:21;;;;;;;5.78;3.08;;;;;;;;;;4977595;28;99764;-71
2023/08/29 07:39:48;;;;;;;3.55;3.13;;;;;;;;;;4977431;28;100097;-70
2023/08/29 07:42:16;;;;;;;3.22;3.00;;;;;;;;;;4972773;28;100398;-70
2023/08/29 07:44:43;;;;;;;3.75;3.03;;;;;;;;;;4985184;28;101103;-70
2023/08/29 07:47:09;;;;;;;5.47;2.72;;;;;;;;;;4980460;28;99891;-70
2023/08/29 07:49:41;;;;;;;4.07;2.70;;;;;;;;;;4981129;28;99592;-70
2023/08/29 07:52:08;;;;;;;3.40;2.58;;;;;;;;;;4984277;28;99502;-71
2023/08/29 07:54:35;;;;;;;5.95;3.03;;;;;;;;;;4988853;28;99848;-71
2023/08/29 07:57:01;;;;;;;3.45;2.70;;;;;;;;;;4981328;28;100519;-70
2023/08/29 07:59:28;;;;;;;3.22;2.92;;;;;;;;;;4976002;28;99617;-70
2023/08/29 08:01:54;;;;;;;3.15;2.85;;;;;;;;;;4972407;28;100204;-71
2023/08/29 08:04:21;;;;;;;2.80;2.60;;;;;;;;;;4968314;28;100121;-71
2023/08/29 08:06:47;;;;;;;3.03;2.83;;;;;;;;;;4979624;28;100195;-71
2023/08/29 08:09:14;;;;;;;4.72;2.70;;;;;;;;;;4971068;28;101019;-70
2023/08/29 08:11:41;;;;;;;14.15;3.20;;;;;;;;;;4975882;28;100753;-71
2023/08/29 08:14:07;;;;;;;4.07;2.17;;;;;;;;;;4971339;28;100646;-71
2023/08/29 08:16:34;;;;;;;3.20;2.38;;;;;;;;;;4970940;28;99370;-71
2023/08/29 08:19:00;;;;;;;2.85;2.30;;;;;;;;;;4982077;28;100164;-74
2023/08/29 08:21:27;;;;;;;3.13;2.03;;;;;;;;;;4973081;28;102172;-72
2023/08/29 08:23:53;;;;;;;5.15;2.00;;;;;;;;;;4978206;28;100392;-72
2023/08/29 08:26:19;;;;;;;4.32;2.05;;;;;;;;;;4976573;28;99920;-71
2023/08/29 08:28:46;;;;;;;2.63;1.80;;;;;;;;;;4975240;28;99476;-72
2023/08/29 08:31:12;;;;;;;3.42;1.75;;;;;;;;;;4966558;28;99326;-72
2023/08/29 08:33:40;;;;;;;2.58;1.50;;;;;;;;;;4974998;28;99355;-72
2023/08/29 08:36:07;;;;;;;3.60;1.73;;;;;;;;;;4969487;28;101004;-71
2023/08/29 08:38:34;;;;;;;3.67;1.65;;;;;;;;;;4974292;28;100660;-72
2023/08/29 08:41:00;;;;;;;4.30;1.10;;;;;;;;;;4983845;28;99893;-70
2023/08/29 08:43:28;;;;;;;2.50;1.48;;;;;;;;;;4983698;28;99166;-70
2023/08/29 08:45:55;;;;;;;1.95;0.70;;;;;;;;;;4970612;28;100434;-70
2023/08/29 08:48:22;;;;;;;3.30;0.88;;;;;;;;;;4970442;28;99332;-71
2023/08/29 08:50:49;;;;;;;4.22;0.90;;;;;;;;;;4969449;28;99864;-71
2023/08/29 08:53:18;;;;;;;0.90;0.52;;;;;;;;;;4975655;28;99283;-69
2023/08/29 08:55:44;;;;;;;0.40;0.40;;;;;;;;;;4972626;28;99553;-69
2023/08/29 08:58:11;;;;;;;3.92;0.90;;;;;;;;;;4969618;28;100900;-70
2023/08/29 09:00:37;;;;;;;2.83;1.20;;;;;;;;;;4976433;28;100624;-70
2023/08/29 09:03:04;;;;;;;2.38;0.85;;;;;;;;;;4982419;28;100177;-70
2023/08/29 09:05:30;;;;;;;1.45;0.95;;;;;;;;;;4975792;28;100369;-70
2023/08/29 09:07:59;;;;;;;1.77;0.65;;;;;;;;;;4977879;28;99872;-70
2023/08/29 09:10:25;;;;;;;0.75;0.75;;;;;;;;;;4975412;28;100232;-71
2023/08/29 09:12:53;;;;;;;5.75;1.35;;;;;;;;;;4983099;28;100087;-71
2023/08/29 09:15:19;;;;;;;2.13;1.02;;;;;;;;;;4971027;28;99429;-71
2023/08/29 09:17:46;;;;;;;3.42;0.75;;;;;;;;;;4973441;28;100107;-71
2023/08/29 09:20:13;;;;;;;1.05;0.93;;;;;;;;;;4976002;28;100139;-71
2023/08/29 09:22:43;;;;;;;2.60;0.95;;;;;;;;;;4972722;28;102897;-70
2023/08/29 09:25:11;;;;;;;1.13;0.73;;;;;;;;;;4975253;28;100225;-71
2023/08/29 09:27:39;;;;;;;1.08;0.90;;;;;;;;;;4970575;28;100098;-71
2023/08/29 09:30:12;;;;;;;2.33;0.95;;;;;;;;;;4974147;28;100410;-70
2023/08/29 09:32:46;;;;;;;1.60;1.10;;;;;;;;;;4993978;28;99875;-71
2023/08/29 09:35:13;;;;;;;0.90;0.90;;;;;;;;;;4972888;27;99528;-72
2023/08/29 09:37:46;;;;;;;4.15;1.15;;;;;;;;;;4975654;28;99909;-72
2023/08/29 09:40:18;;;;;;;6.00;2.42;;;;;;;;;;4974333;28;99087;-74
2023/08/29 09:43:04;;;;;;;7.43;1.10;;;;;;;;;;4976663;28;100186;-74
2023/08/29 09:45:31;;;;;;;0.98;0.98;;;;;;;;;;4978118;28;99154;-71
2023/08/29 09:48:02;;;;;;;0.80;0.80;;;;;;;;;;4978337;28;100106;-75
2023/08/29 09:50:29;;;;;;;3.13;1.35;;;;;;;;;;4982337;28;99436;-72
2023/08/29 09:52:56;;;;;;;3.33;1.30;;;;;;;;;;4975654;28;99926;-71
2023/08/29 09:55:23;;;;;;;0.95;0.90;;;;;;;;;;4977741;28;99895;-73
2023/08/29 09:57:51;;;;;;;0.93;0.90;;;;;;;;;;4977816;28;100312;-71
2023/08/29 10:00:21;;;;;;;2.50;1.27;;;;;;;;;;4980843;28;100242;-73
2023/08/29 10:02:50;;;;;;;1.80;0.98;;;;;;;;;;4976551;28;99434;-73
2023/08/29 10:05:21;;;;;;;1.83;1.10;;;;;;;;;;4980355;28;100049;-73
2023/08/29 10:07:48;;;;;;;3.00;1.40;;;;;;;;;;4976353;28;99889;-74
2023/08/29 10:10:15;;;;;;;0.90;0.90;;;;;;;;;;4972268;28;100334;-72
2023/08/29 10:12:43;;;;;;;3.47;0.88;;;;;;;;;;4973610;28;99288;-75
2023/08/29 10:15:10;;;;;;;1.13;1.02;;;;;;;;;;4975548;28;100154;-74
2023/08/29 10:17:36;;;;;;;1.65;1.50;;;;;;;;;;4977857;28;99312;-73
2023/08/29 10:20:09;;;;;;;2.17;1.52;;;;;;;;;;4979831;28;100143;-73
2023/08/29 10:22:37;;;;;;;6.45;2.97;;;;;;;;;;4979099;28;100684;-72
2023/08/29 10:25:03;;;;;;;5.30;2.67;;;;;;;;;;4975818;28;99757;-71
2023/08/29 10:27:30;;;;;;;2.75;1.05;;;;;;;;;;4982062;28;100299;-71
2023/08/29 10:29:57;;;;;;;4.70;1.02;;;;;;;;;;4978572;28;99933;-71
2023/08/29 10:32:24;;;;;;;1.98;1.05;;;;;;;;;;4973574;28;100330;-73
2023/08/29 10:34:53;;;;;;;2.00;1.35;;;;;;;;;;4984960;28;100065;-72
2023/08/29 10:37:20;;;;;;;1.80;1.25;;;;;;;;;;4976883;28;101313;-71
2023/08/29 10:39:50;;;;;;;1.58;1.48;;;;;;;;;;4974269;28;100012;-70
2023/08/29 10:42:17;;;;;;;3.60;1.45;;;;;;;;;;4974181;28;101001;-73
2023/08/29 10:44:44;;;;;;;2.75;1.70;;;;;;;;;;4974630;28;99907;-70
2023/08/29 10:47:19;;;;;;;1.88;1.77;;;;;;;;;;4980838;28;99957;-71
2023/08/29 10:49:46;;;;;;;5.00;3.17;;;;;;;;;;4975732;28;100151;-73
2023/08/29 10:52:14;;;;;;;7.78;1.70;;;;;;;;;;4972206;28;99906;-71
2023/08/29 10:54:40;;;;;;;2.00;1.40;;;;;;;;;;4977003;28;99841;-71
2023/08/29 10:57:27;;;;;;;2.50;1.25;;;;;;;;;;4975028;28;100654;-72
2023/08/29 10:59:54;;;;;;;2.65;2.45;;;;;;;;;;4980048;27;100536;-73
2023/08/29 11:02:22;;;;;;;1.85;1.55;;;;;;;;;;4984687;28;100237;-73
2023/08/29 11:04:50;;;;;;;1.25;1.20;;;;;;;;;;4976922;28;100057;-73
2023/08/29 11:07:25;;;;;;;1.52;1.42;;;;;;;;;;4972868;28;100098;-72
2023/08/29 11:10:11;;;;;;;3.53;2.17;;;;;;;;;;4979107;28;100146;-73
2023/08/29 11:12:57;;;;;;;2.47;1.30;;;;;;;;;;4984454;28;99909;-72
2023/08/29 11:15:43;;;;;;;1.65;1.10;;;;;;;;;;4968337;28;100287;-72
2023/08/29 11:18:22;;;;;;;0.88;0.75;;;;;;;;;;4983888;28;99790;-71
2023/08/29 11:20:48;;;;;;;0.80;0.63;;;;;;;;;;4986343;28;99809;-72
2023/08/29 11:23:15;;;;;;;0.60;0.60;;;;;;;;;;4986156;28;99167;-72
2023/08/29 11:25:42;;;;;;;2.80;0.80;;;;;;;;;;4989669;28;100354;-71
2023/08/29 11:28:08;;;;;;;0.60;0.60;;;;;;;;;;4985093;28;100136;-71
2023/08/29 11:30:35;;;;;;;0.93;0.80;;;;;;;;;;4985705;28;99309;-72
2023/08/29 11:33:10;;;;;;;1.10;0.80;;;;;;;;;;4986174;28;99972;-72
2023/08/29 11:35:36;;;;;;;0.88;0.68;;;;;;;;;;4984339;28;100026;-71
2023/08/29 11:38:04;;;;;;;0.73;0.73;;;;;;;;;;4986589;28;99020;-73
2023/08/29 11:40:32;;;;;;;1.85;0.90;;;;;;;;;;4985862;28;100063;-72
2023/08/29 11:43:18;;;;;;;2.90;0.73;;;;;;;;;;4985315;28;100011;-73
2023/08/29 11:46:06;;;;;;;1.48;0.80;;;;;;;;;;4989746;28;99472;-73
2023/08/29 11:48:33;;;;;;;0.90;0.82;;;;;;;;;;4985105;28;98634;-74
2023/08/29 11:51:04;;;;;;;3.17;0.95;;;;;;;;;;4986059;28;100339;-73
2023/08/29 11:53:35;;;;;;;2.00;0.98;;;;;;;;;;4985190;28;100107;-73
2023/08/29 11:56:08;;;;;;;4.72;1.13;;;;;;;;;;4985130;28;100851;-73
2023/08/29 11:58:36;;;;;;;2.47;1.17;;;;;;;;;;4988278;28;100208;-72
2023/08/29 12:01:03;;;;;;;1.52;0.90;;;;;;;;;;4989367;28;100091;-72
2023/08/29 12:03:34;;;;;;;1.00;1.00;;;;;;;;;;4988937;28;99801;-72
2023/08/29 12:06:03;;;;;;;1.60;1.30;;;;;;;;;;4989099;28;100160;-72
2023/08/29 12:08:36;;;;;;;1.30;1.20;;;;;;;;;;4992322;28;100208;-71
2023/08/29 12:11:03;;;;;;;2.38;1.30;;;;;;;;;;4988566;28;99475;-71
2023/08/29 12:13:30;;;;;;;1.30;1.20;;;;;;;;;;4988566;28;100017;-71
2023/08/29 12:15:56;;;;;;;1.75;1.25;;;;;;;;;;4988883;28;99997;-72
2023/08/29 12:18:25;;;;;;;2.70;1.30;;;;;;;;;;4987589;28;100866;-72
2023/08/29 12:20:52;;;;;;;4.47;1.45;;;;;;;;;;4989157;28;100136;-71
2023/08/29 12:23:26;;;;;;;3.53;1.50;;;;;;;;;;4986092;28;99798;-72
2023/08/29 12:25:55;;;;;;;3.95;1.20;;;;;;;;;;4983313;28;100165;-72
2023/08/29 12:28:24;;;;;;;2.35;1.25;;;;;;;;;;4999554;28;99973;-72
2023/08/29 12:30:51;;;;;;;2.00;1.90;;;;;;;;;;4990695;28;99678;-73
2023/08/29 12:33:17;;;;;;;2.47;2.28;;;;;;;;;;4988045;28;99099;-73
2023/08/29 12:35:44;;;;;;;2.47;1.17;;;;;;;;;;4982912;28;100185;-72
2023/08/29 12:38:10;;;;;;;1.40;1.30;;;;;;;;;;4992702;27;99544;-71
2023/08/29 12:40:37;;;;;;;2.03;1.88;;;;;;;;;;4980637;28;102202;-72
2023/08/29 12:43:09;;;;;;;3.72;2.05;;;;;;;;;;4973992;27;101094;-71
2023/08/29 12:45:35;;;;;;;1.50;1.40;;;;;;;;;;4973807;28;100096;-71
2023/08/29 12:48:20;;;;;;;2.22;1.33;;;;;;;;;;4980824;28;100195;-72
2023/08/29 12:50:46;;;;;;;5.28;1.50;;;;;;;;;;4994149;28;99884;-71
2023/08/29 12:53:13;;;;;;;3.25;2.95;;;;;;;;;;4992866;28;100152;-72
2023/08/29 12:55:39;;;;;;;1.73;1.40;;;;;;;;;;4987884;28;100217;-72
2023/08/29 12:58:06;;;;;;;1.70;1.60;;;;;;;;;;4987769;28;100014;-72
2023/08/29 13:00:33;;;;;;;1.85;1.73;;;;;;;;;;4982033;28;99134;-72
2023/08/29 13:03:00;;;;;;;2.08;1.90;;;;;;;;;;4986501;28;98536;-72
2023/08/29 13:05:26;;;;;;;2.65;2.45;;;;;;;;;;4986117;28;99384;-72
2023/08/29 13:07:53;;;;;;;2.55;2.35;;;;;;;;;;4986958;28;100118;-72
2023/08/29 13:10:20;;;;;;;2.63;2.42;;;;;;;;;;4987059;28;100887;-71
2023/08/29 13:12:46;;;;;;;3.28;2.35;;;;;;;;;;4988244;28;100196;-72
2023/08/29 13:15:16;;;;;;;4.10;2.20;;;;;;;;;;4989803;28;99643;-71
2023/08/29 13:17:43;;;;;;;2.60;2.40;;;;;;;;;;4987751;28;101479;-72
2023/08/29 13:20:09;;;;;;;2.05;1.90;;;;;;;;;;4987423;28;100107;-72
2023/08/29 13:22:39;;;;;;;6.05;3.08;;;;;;;;;;4988192;28;100178;-72
2023/08/29 13:25:06;;;;;;;3.50;2.88;;;;;;;;;;4975231;28;99457;-72
2023/08/29 13:27:33;;;;;;;2.97;2.78;;;;;;;;;;4967675;28;99077;-72
2023/08/29 13:29:59;;;;;;;3.25;2.55;;;;;;;;;;4968205;28;99180;-72
2023/08/29 13:32:26;;;;;;;3.50;3.20;;;;;;;;;;4965915;28;101439;-72
2023/08/29 13:34:53;;;;;;;4.82;2.53;;;;;;;;;;4967322;28;100016;-72
2023/08/29 13:37:19;;;;;;;2.78;2.42;;;;;;;;;;4970887;28;99839;-73
2023/08/29 13:39:52;;;;;;;3.50;2.70;;;;;;;;;;4967867;28;99855;-72
2023/08/29 13:42:19;;;;;;;2.72;2.53;;;;;;;;;;4966986;28;101731;-73
2023/08/29 13:44:45;;;;;;;4.75;2.60;;;;;;;;;;4968046;28;99485;-72
2023/08/29 13:47:12;;;;;;;3.33;3.00;;;;;;;;;;4967930;28;99417;-71
2023/08/29 13:49:39;;;;;;;2.55;2.45;;;;;;;;;;4968330;28;99162;-73
2023/08/29 13:52:08;;;;;;;3.55;3.25;;;;;;;;;;4967749;28;100415;-73
2023/08/29 13:54:35;;;;;;;5.03;2.63;;;;;;;;;;4967731;28;99394;-73
2023/08/29 13:57:03;;;;;;;6.47;3.00;;;;;;;;;;4970298;28;99778;-72
2023/08/29 13:59:31;;;;;;;5.03;3.45;;;;;;;;;;4967438;28;99256;-72
2023/08/29 14:01:57;;;;;;;3.55;3.25;;;;;;;;;;4967750;28;99973;-72
2023/08/29 14:04:24;;;;;;;4.05;3.85;;;;;;;;;;4966723;28;99197;-73
2023/08/29 14:06:50;;;;;;;3.90;3.60;;;;;;;;;;4967508;28;100182;-72
2023/08/29 14:09:17;;;;;;;3.85;3.55;;;;;;;;;;4966987;28;99486;-72
2023/08/29 14:11:43;;;;;;;3.78;3.47;;;;;;;;;;4967452;28;100143;-72
2023/08/29 14:14:09;;;;;;;3.13;2.92;;;;;;;;;;4967085;28;99686;-72
2023/08/29 14:16:36;;;;;;;3.78;3.17;;;;;;;;;;4966952;28;100024;-72
2023/08/29 14:19:02;;;;;;;4.55;3.15;;;;;;;;;;4970749;28;100130;-72
2023/08/29 14:21:29;;;;;;;3.47;3.17;;;;;;;;;;4964539;28;99893;-72
2023/08/29 14:23:55;;;;;;;2.60;2.40;;;;;;;;;;4969948;28;100409;-73
2023/08/29 14:26:22;;;;;;;7.60;2.90;;;;;;;;;;4966818;28;100058;-72
2023/08/29 14:28:48;;;;;;;2.17;2.08;;;;;;;;;;4967874;28;99127;-72
2023/08/29 14:31:20;;;;;;;3.17;1.83;;;;;;;;;;4966854;28;99294;-73
2023/08/29 14:33:46;;;;;;;2.13;1.93;;;;;;;;;;4967523;28;99136;-72
2023/08/29 14:36:13;;;;;;;1.92;1.83;;;;;;;;;;4966987;28;99533;-72
2023/08/29 14:38:39;;;;;;;3.88;1.92;;;;;;;;;;4967356;28;98490;-72